Weather at Alytus Airfield

Public forecast

Using degrees Celsius for public forecast. Weather courtesy of forecast.io.

Closest aviation weather report (METAR) to Alytus Airfield

Closest report is Kaunas International Airport, 33.1 nm (61.3 km) N.

2023/03/24 05:20 (retrieved 21 minutes ago)

EYKA 240520Z 22005KT 200V280 CAVOK 06/04 Q1005

Closest aviation forecast (TAF) to Alytus Airfield

Forecast is more than 6 hours old.

Closest forecast is Slia─Ź Airport, 392.3 nm (726.5 km) SSW.

2023/03/23 18:33 (retrieved 11 hours ago)

TAF TAF LZSL 231630Z 2318/2406 VRB02KT 9999 FEW050 BECMG 2320/2322 CAVOK PROB30 TEMPO 2402/2406 2000 BCFG SCT002